createdAt,value
2018-09-18T00:00:41.221Z,10.20
2018-09-18T00:03:09.892Z,11.63
2018-09-18T00:05:38.338Z,11.53
2018-09-18T00:08:06.863Z,10.77
2018-09-18T00:27:57.352Z,10.80
2018-09-18T00:30:26.457Z,10.87
2018-09-18T00:32:54.882Z,11.43
2018-09-18T00:35:23.781Z,11.17
2018-09-18T00:37:52.176Z,11.07
2018-09-18T00:40:20.702Z,11.70
2018-09-18T00:42:49.796Z,11.33
2018-09-18T00:45:18.189Z,10.97
2018-09-18T00:47:48.070Z,11.10
2018-09-18T00:50:17.900Z,10.43
2018-09-18T01:10:07.598Z,12.53
2018-09-18T01:12:36.386Z,12.97
2018-09-18T01:15:05.138Z,11.30
2018-09-18T01:17:34.945Z,13.10
2018-09-18T01:20:04.809Z,11.57
2018-09-18T01:22:33.276Z,12.13
2018-09-18T01:25:01.781Z,12.50
2018-09-18T01:27:30.302Z,12.33
2018-09-18T01:29:59.147Z,11.67
2018-09-18T01:32:27.779Z,11.27
2018-09-18T01:34:56.470Z,11.57
2018-09-18T01:37:25.138Z,11.27
2018-09-18T01:39:53.603Z,11.63
2018-09-18T01:59:43.201Z,10.40
2018-09-18T02:02:11.698Z,10.60
2018-09-18T02:04:40.566Z,9.97
2018-09-18T02:07:09.375Z,9.83
2018-09-18T02:09:37.832Z,10.57
2018-09-18T02:12:06.354Z,10.50
2018-09-18T02:14:35.026Z,9.80
2018-09-18T02:17:03.481Z,10.83
2018-09-18T02:19:32.510Z,11.47
2018-09-18T02:22:01.198Z,11.13
2018-09-18T02:24:29.746Z,11.50
2018-09-18T02:26:58.205Z,11.33
2018-09-18T02:29:26.696Z,11.63
2018-09-18T02:31:55.229Z,11.37
2018-09-18T02:34:23.754Z,12.50
2018-09-18T02:36:52.451Z,12.00
2018-09-18T02:39:21.596Z,12.23
2018-09-18T02:41:50.831Z,12.40
2018-09-18T02:44:19.289Z,11.27
2018-09-18T02:46:48.612Z,11.30
2018-09-18T02:49:17.054Z,12.07
2018-09-18T02:51:45.519Z,11.57
2018-09-18T02:54:14.010Z,10.30
2018-09-18T02:56:42.485Z,11.40
2018-09-18T02:59:13.545Z,10.77
2018-09-18T03:01:42.210Z,11.23
2018-09-18T03:04:10.718Z,11.10
2018-09-18T03:06:39.295Z,11.90
2018-09-18T03:09:09.226Z,11.80
2018-09-18T03:11:37.840Z,10.67
2018-09-18T03:14:06.756Z,12.17
2018-09-18T03:16:35.315Z,12.33
2018-09-18T03:19:05.260Z,12.67
2018-09-18T03:21:33.760Z,12.40
2018-09-18T03:24:02.243Z,12.40
2018-09-18T03:26:31.358Z,12.53
2018-09-18T03:28:59.889Z,12.37
2018-09-18T03:31:28.491Z,12.63
2018-09-18T03:33:57.074Z,12.60
2018-09-18T03:36:25.649Z,12.60
2018-09-18T03:38:54.125Z,11.90
2018-09-18T03:41:23.300Z,12.17
2018-09-18T03:43:51.761Z,11.80
2018-09-18T03:46:20.229Z,11.90
2018-09-18T03:48:48.743Z,12.27
2018-09-18T03:51:17.518Z,12.67
2018-09-18T03:53:46.591Z,12.80
2018-09-18T03:56:15.140Z,11.50
2018-09-18T03:58:43.706Z,12.00
2018-09-18T04:01:12.223Z,12.23
2018-09-18T04:03:40.789Z,11.97
2018-09-18T04:06:09.454Z,12.93
2018-09-18T04:08:37.974Z,13.03
2018-09-18T04:11:06.507Z,12.43
2018-09-18T04:13:35.905Z,12.53
2018-09-18T04:16:04.417Z,12.30
2018-09-18T04:18:32.995Z,12.13
2018-09-18T04:21:01.697Z,12.93
2018-09-18T04:23:30.871Z,12.27
2018-09-18T04:25:59.381Z,12.20
2018-09-18T04:28:28.401Z,13.07
2018-09-18T04:30:57.638Z,11.57
2018-09-18T04:33:26.468Z,12.47
2018-09-18T04:35:54.960Z,11.53
2018-09-18T04:38:23.494Z,12.57
2018-09-18T04:40:52.292Z,12.13
2018-09-18T04:43:20.922Z,12.97
2018-09-18T04:45:50.751Z,12.57
2018-09-18T04:48:19.263Z,13.50
2018-09-18T04:50:48.020Z,13.50
2018-09-18T04:53:16.630Z,13.10
2018-09-18T04:55:46.577Z,13.20
2018-09-18T04:58:15.946Z,12.57
2018-09-18T05:00:44.365Z,12.17
2018-09-18T05:03:14.194Z,12.70
2018-09-18T05:05:42.662Z,12.33
2018-09-18T05:08:11.053Z,12.63
2018-09-18T05:10:39.522Z,13.63
2018-09-18T05:13:08.306Z,13.07
2018-09-18T05:15:37.408Z,12.70
2018-09-18T05:18:05.885Z,13.07
2018-09-18T05:20:34.396Z,13.47
2018-09-18T05:23:02.877Z,13.10
2018-09-18T05:25:32.248Z,12.97
2018-09-18T05:28:01.059Z,11.70
2018-09-18T05:30:30.368Z,12.70
2018-09-18T05:32:58.850Z,12.80
2018-09-18T05:35:27.598Z,12.37
2018-09-18T05:37:56.050Z,12.40
2018-09-18T05:40:24.576Z,12.70
2018-09-18T05:42:54.018Z,12.83
2018-09-18T05:45:22.540Z,11.70
2018-09-18T05:47:51.034Z,13.40
2018-09-18T05:50:19.602Z,12.37
2018-09-18T05:52:49.232Z,12.17
2018-09-18T05:55:17.761Z,12.07
2018-09-18T05:57:46.650Z,12.00
2018-09-18T06:17:37.010Z,11.80
2018-09-18T06:20:06.637Z,13.10
2018-09-18T06:22:35.128Z,13.67
2018-09-18T06:25:03.645Z,13.17
2018-09-18T06:27:32.362Z,13.90
2018-09-18T06:30:00.841Z,13.80
2018-09-18T06:32:29.322Z,12.53
2018-09-18T06:34:58.798Z,13.50
2018-09-18T06:37:27.490Z,13.17
2018-09-18T06:39:56.005Z,13.03
2018-09-18T06:42:24.636Z,13.67
2018-09-18T06:44:53.085Z,14.10
2018-09-18T07:04:43.065Z,16.20
2018-09-18T07:07:12.286Z,16.73
2018-09-18T07:09:40.831Z,17.23
2018-09-18T07:12:09.568Z,16.90
2018-09-18T07:31:59.737Z,16.57
2018-09-18T07:34:29.008Z,16.63
2018-09-18T07:36:57.429Z,17.20
2018-09-18T07:39:25.932Z,16.53
2018-09-18T07:41:54.659Z,16.93
2018-09-18T07:44:24.035Z,15.87
2018-09-18T07:46:53.145Z,17.20
2018-09-18T08:06:44.445Z,16.80
2018-09-18T08:09:12.917Z,15.97
2018-09-18T08:11:41.423Z,16.10
2018-09-18T08:14:10.826Z,17.10
2018-09-18T08:16:39.237Z,16.43
2018-09-18T08:19:07.748Z,16.37
2018-09-18T08:21:36.386Z,15.77
2018-09-18T08:24:05.384Z,15.50
2018-09-18T08:26:33.922Z,16.37
2018-09-18T08:29:03.246Z,14.63
2018-09-18T08:31:31.754Z,16.70
2018-09-18T08:34:01.442Z,16.90
2018-09-18T08:36:30.332Z,15.87
2018-09-18T08:38:58.822Z,16.67
2018-09-18T08:41:27.942Z,16.00
2018-09-18T08:43:56.681Z,15.80
2018-09-18T08:46:25.839Z,16.30
2018-09-18T08:48:57.405Z,15.00
2018-09-18T08:51:26.496Z,16.60
2018-09-18T09:11:17.322Z,16.00
2018-09-18T09:13:45.773Z,14.47
2018-09-18T09:16:14.534Z,14.70
2018-09-18T09:18:44.337Z,15.80
2018-09-18T09:21:13.944Z,15.27
2018-09-18T09:23:43.554Z,13.83
2018-09-18T09:26:12.457Z,14.17
2018-09-18T09:28:41.842Z,15.13
2018-09-18T09:31:10.702Z,14.43
2018-09-18T09:33:39.269Z,14.73
2018-09-18T09:36:08.414Z,14.30
2018-09-18T09:38:37.133Z,14.67
2018-09-18T09:58:26.882Z,11.80
2018-09-18T10:01:00.565Z,11.47
2018-09-18T10:03:29.223Z,10.90
2018-09-18T10:05:57.701Z,11.67
2018-09-18T10:08:28.340Z,10.07
2018-09-18T10:10:57.080Z,9.93
2018-09-18T10:13:25.365Z,8.60
2018-09-18T10:15:53.845Z,8.90
2018-09-18T10:18:22.309Z,8.93
2018-09-18T10:20:50.794Z,9.17
2018-09-18T10:23:19.309Z,9.10
2018-09-18T10:25:48.621Z,9.37
2018-09-18T10:28:17.143Z,9.50
2018-09-18T10:30:45.642Z,8.93
2018-09-18T10:33:14.257Z,9.03
2018-09-18T10:35:42.745Z,9.03
2018-09-18T10:38:11.980Z,9.70
2018-09-18T10:40:40.744Z,9.00
2018-09-18T10:43:09.207Z,9.30
2018-09-18T10:45:37.745Z,8.70
2018-09-18T10:48:06.597Z,9.50
2018-09-18T10:50:35.480Z,9.50
2018-09-18T10:53:04.087Z,9.20
2018-09-18T10:55:32.645Z,8.77
2018-09-18T10:58:01.135Z,9.03
2018-09-18T11:00:30.227Z,10.10
2018-09-18T11:02:58.941Z,9.40
2018-09-18T11:05:27.428Z,8.80
2018-09-18T11:07:55.959Z,8.80
2018-09-18T11:10:24.481Z,9.03
2018-09-18T11:12:53.026Z,8.63
2018-09-18T11:15:22.309Z,8.67
2018-09-18T11:17:52.014Z,9.10
2018-09-18T11:20:21.539Z,8.33
2018-09-18T11:22:50.197Z,8.40
2018-09-18T11:25:19.737Z,8.90
2018-09-18T11:27:48.170Z,8.30
2018-09-18T11:47:39.842Z,8.20
2018-09-18T11:50:09.640Z,8.37
2018-09-18T11:52:38.966Z,7.80
2018-09-18T11:55:08.641Z,8.33
2018-09-18T11:57:37.342Z,8.03
2018-09-18T12:17:27.069Z,8.47
2018-09-18T12:19:55.702Z,8.53
2018-09-18T12:22:24.297Z,8.87
2018-09-18T12:24:53.190Z,8.30
2018-09-18T12:27:21.809Z,8.47
2018-09-18T12:29:50.523Z,8.03
2018-09-18T12:32:19.954Z,8.17
2018-09-18T12:34:48.989Z,8.63
2018-09-18T12:37:17.541Z,7.97
2018-09-18T12:39:46.928Z,7.63
2018-09-18T12:42:15.559Z,8.13
2018-09-18T12:44:43.925Z,7.80
2018-09-18T12:47:12.391Z,8.07
2018-09-18T12:49:41.073Z,8.33
2018-09-18T12:52:10.714Z,7.80
2018-09-18T13:12:01.226Z,8.27
2018-09-18T13:14:29.753Z,7.77
2018-09-18T13:16:58.761Z,8.23
2018-09-18T13:19:28.159Z,8.37
2018-09-18T13:21:56.785Z,8.50
2018-09-18T13:24:25.881Z,8.80
2018-09-18T13:26:55.419Z,8.33
2018-09-18T13:29:23.992Z,8.37
2018-09-18T13:31:53.989Z,8.00
2018-09-18T13:51:50.460Z,7.73
2018-09-18T13:54:19.496Z,7.60
2018-09-18T13:56:48.753Z,6.83
2018-09-18T13:59:17.344Z,7.00
2018-09-18T14:01:45.983Z,6.73
2018-09-18T14:04:14.485Z,6.90
2018-09-18T14:06:43.153Z,6.70
2018-09-18T14:09:11.692Z,6.30
2018-09-18T14:11:40.745Z,5.73
2018-09-18T14:14:09.739Z,6.00
2018-09-18T14:16:38.276Z,5.63
2018-09-18T14:19:06.854Z,6.50
2018-09-18T14:38:57.050Z,5.35
2018-09-18T14:41:25.567Z,5.12
2018-09-18T14:43:54.074Z,4.97
2018-09-18T14:46:22.940Z,4.62
2018-09-18T14:48:51.500Z,5.12
2018-09-18T14:51:20.278Z,5.03
2018-09-18T14:53:48.871Z,5.47
2018-09-18T14:56:17.957Z,5.15
2018-09-18T14:58:47.437Z,4.45
2018-09-18T15:01:16.014Z,4.78
2018-09-18T15:03:44.829Z,5.15
2018-09-18T15:06:13.782Z,5.17
2018-09-18T15:08:42.399Z,4.62
2018-09-18T15:11:11.241Z,4.80
2018-09-18T15:13:40.833Z,4.53
2018-09-18T15:16:09.564Z,4.65
2018-09-18T15:35:59.980Z,4.20
2018-09-18T15:38:29.693Z,4.55
2018-09-18T15:40:59.201Z,4.50
2018-09-18T15:43:29.638Z,4.50
2018-09-18T15:45:59.278Z,4.80
2018-09-18T15:48:28.915Z,4.62
2018-09-18T15:50:58.556Z,4.72
2018-09-18T15:53:29.405Z,4.62
2018-09-18T15:55:59.834Z,4.65
2018-09-18T15:58:29.445Z,4.15
2018-09-18T16:00:59.885Z,4.33
2018-09-18T16:03:29.895Z,4.33
2018-09-18T16:06:00.131Z,4.13
2018-09-18T16:08:30.847Z,4.10
2018-09-18T16:28:21.401Z,4.50
2018-09-18T16:30:51.277Z,4.33
2018-09-18T16:33:20.727Z,5.10
2018-09-18T16:35:50.404Z,4.83
2018-09-18T16:55:42.240Z,6.07
2018-09-18T16:58:11.719Z,6.10
2018-09-18T17:18:03.596Z,8.00
2018-09-18T17:20:33.714Z,7.60
2018-09-18T17:40:26.296Z,7.73
2018-09-18T17:42:55.693Z,8.63
2018-09-18T17:45:24.870Z,8.80
2018-09-18T17:47:54.517Z,8.57
2018-09-18T17:50:24.001Z,8.93
2018-09-18T18:10:15.198Z,9.30
2018-09-18T18:12:44.796Z,9.67
2018-09-18T18:15:14.419Z,9.37
2018-09-18T18:17:44.530Z,10.10
2018-09-18T18:20:14.356Z,9.80
2018-09-18T18:22:44.162Z,10.03
2018-09-18T18:25:14.485Z,9.90
2018-09-18T18:27:44.818Z,9.10
2018-09-18T18:30:14.529Z,9.03
2018-09-18T18:32:44.140Z,8.20
2018-09-18T18:35:14.268Z,8.70
2018-09-18T18:37:44.342Z,8.63
2018-09-18T18:40:14.101Z,8.53
2018-09-18T18:42:43.717Z,9.60
2018-09-18T18:45:14.427Z,8.03
2018-09-18T18:47:45.149Z,9.40
2018-09-18T18:50:14.691Z,9.23
2018-09-18T18:52:44.197Z,9.70
2018-09-18T18:55:14.016Z,10.13
2018-09-18T18:57:46.809Z,9.50
2018-09-18T19:00:16.610Z,10.10
2018-09-18T19:02:46.121Z,9.30
2018-09-18T19:05:15.653Z,10.03
2018-09-18T19:07:45.958Z,10.87
2018-09-18T19:10:15.436Z,10.97
2018-09-18T19:12:44.987Z,11.43
2018-09-18T19:15:15.195Z,11.43
2018-09-18T19:17:45.326Z,11.60
2018-09-18T19:20:14.725Z,10.50
2018-09-18T19:22:44.784Z,9.97
2018-09-18T19:42:36.918Z,10.43
2018-09-18T19:45:06.950Z,11.13
2018-09-18T19:47:37.273Z,11.20
2018-09-18T19:50:10.951Z,10.97
2018-09-18T19:52:41.516Z,10.60
2018-09-18T19:55:11.121Z,9.33
2018-09-18T19:57:41.245Z,10.13
2018-09-18T20:00:11.985Z,9.90
2018-09-18T20:02:42.514Z,11.30
2018-09-18T20:22:33.170Z,6.43
2018-09-18T20:25:02.602Z,5.90
2018-09-18T20:27:32.071Z,5.50
2018-09-18T20:30:02.808Z,4.20
2018-09-18T20:32:33.441Z,3.60
2018-09-18T20:35:04.425Z,3.93
2018-09-18T20:37:34.614Z,4.33
2018-09-18T20:40:04.729Z,3.43
2018-09-18T20:42:34.353Z,3.50
2018-09-18T20:45:04.777Z,4.27
2018-09-18T20:47:34.378Z,3.80
2018-09-18T20:50:04.607Z,3.80
2018-09-18T20:52:34.829Z,4.00
2018-09-18T20:55:04.547Z,3.70
2018-09-18T20:57:34.052Z,3.20
2018-09-18T21:00:05.913Z,3.47
2018-09-18T21:02:37.060Z,3.20
2018-09-18T21:05:06.881Z,2.63
2018-09-18T21:07:37.306Z,3.00
2018-09-18T21:10:07.638Z,3.27
2018-09-18T21:12:36.538Z,2.77
2018-09-18T21:15:05.572Z,3.17
2018-09-18T21:17:34.475Z,3.23
2018-09-18T21:20:03.651Z,3.10
2018-09-18T21:22:32.148Z,3.20
2018-09-18T21:25:11.308Z,2.93
2018-09-18T21:27:39.961Z,2.90
2018-09-18T21:30:08.535Z,3.00
2018-09-18T21:32:38.458Z,2.73
2018-09-18T21:35:07.268Z,2.80
2018-09-18T21:37:36.488Z,3.00
2018-09-18T21:40:05.086Z,2.60
2018-09-18T21:42:33.578Z,2.80
2018-09-18T21:45:02.563Z,2.40
2018-09-18T21:47:32.130Z,2.40
2018-09-18T21:50:00.549Z,2.30
2018-09-18T21:52:29.071Z,2.50
2018-09-18T21:54:57.685Z,2.40
2018-09-18T21:57:27.806Z,2.60
2018-09-18T21:59:56.312Z,2.80
2018-09-18T22:02:24.926Z,2.70
2018-09-18T22:04:53.911Z,2.40
2018-09-18T22:24:43.172Z,3.23
2018-09-18T22:27:12.344Z,2.40
2018-09-18T22:29:42.359Z,2.50
2018-09-18T22:32:11.172Z,2.60
2018-09-18T22:34:40.229Z,2.83
2018-09-18T22:37:09.995Z,2.60
2018-09-18T22:39:38.470Z,2.30
2018-09-18T22:42:07.017Z,2.30
2018-09-18T23:01:58.015Z,2.70
2018-09-18T23:04:26.616Z,2.80
2018-09-18T23:06:56.205Z,2.80
2018-09-18T23:09:24.684Z,2.50
2018-09-18T23:11:54.387Z,2.97
2018-09-18T23:14:22.906Z,2.60
2018-09-18T23:16:51.583Z,2.90
2018-09-18T23:19:20.083Z,2.60
2018-09-18T23:21:48.482Z,3.47
2018-09-18T23:24:18.069Z,2.50
2018-09-18T23:26:46.542Z,2.70
2018-09-18T23:29:15.044Z,2.80
2018-09-18T23:31:43.708Z,2.60
2018-09-18T23:34:12.165Z,2.43
2018-09-18T23:36:40.646Z,2.57
2018-09-18T23:39:09.916Z,2.80
2018-09-18T23:41:38.892Z,2.73
2018-09-18T23:44:07.729Z,2.70
2018-09-18T23:46:36.414Z,2.77
2018-09-18T23:49:05.479Z,2.77
2018-09-18T23:51:34.389Z,3.10
2018-09-18T23:54:03.029Z,3.13
2018-09-18T23:56:32.245Z,3.40
2018-09-18T23:59:00.823Z,3.20
